createdAt,value
2023-04-09T00:06:40.311Z,5.7
2023-04-09T00:16:41.783Z,5.5
2023-04-09T00:26:42.832Z,5.2
2023-04-09T00:36:44.392Z,5.3
2023-04-09T00:46:45.921Z,5.1
2023-04-09T00:56:47.427Z,5
2023-04-09T01:36:54.151Z,4.6
2023-04-09T01:46:55.610Z,4.5
2023-04-09T01:56:56.881Z,4.1
2023-04-09T02:06:58.031Z,3.7
2023-04-09T02:16:59.807Z,3.4
2023-04-09T02:27:01.192Z,3.4
2023-04-09T02:37:03.191Z,3.1
2023-04-09T02:47:04.740Z,2.8
2023-04-09T02:57:06.750Z,2.6
2023-04-09T03:07:08.215Z,2.8
2023-04-09T03:17:09.392Z,2.7
2023-04-09T03:27:11.409Z,2.5
2023-04-09T04:07:18.869Z,1.7
2023-04-09T06:27:41.387Z,4.6
2023-04-09T06:37:43.100Z,5.2
2023-04-09T06:57:46.520Z,6.5
2023-04-09T07:07:47.628Z,7.1
2023-04-09T07:17:49.450Z,7.3
2023-04-09T07:27:50.949Z,8.2
2023-04-09T07:37:52.060Z,8.7
2023-04-09T07:47:53.206Z,8.8
2023-04-09T07:57:54.843Z,9.6
2023-04-09T08:17:58.295Z,10.4
2023-04-09T08:27:59.947Z,11.1
2023-04-09T08:38:01.781Z,11.5
2023-04-09T08:48:03.219Z,12.1
2023-04-09T09:08:05.916Z,12.6
2023-04-09T09:18:07.192Z,13
2023-04-09T09:28:09.192Z,12.9
2023-04-09T09:58:13.689Z,13.2
2023-04-09T10:28:18.881Z,14.1
2023-04-09T11:28:27.842Z,13.7
2023-04-09T11:38:29.180Z,14.7
2023-04-09T11:48:31.145Z,13.8
2023-04-09T11:58:33.035Z,13.7
2023-04-09T12:18:36.001Z,15.4
2023-04-09T12:28:37.705Z,15
2023-04-09T12:58:42.925Z,15.4
2023-04-09T13:08:44.267Z,15.5
2023-04-09T13:28:47.332Z,14.4
2023-04-09T15:09:04.053Z,14.3
2023-04-09T15:19:05.612Z,14.4
2023-04-09T15:39:09.030Z,14.1
2023-04-09T16:09:14.124Z,14.1
2023-04-09T16:19:16.168Z,14
2023-04-09T17:00:06.876Z,14.7
2023-04-09T17:49:37.375Z,13.1
2023-04-09T17:59:38.772Z,12.8
2023-04-09T18:09:39.978Z,12.5
2023-04-09T18:19:41.676Z,12.1
2023-04-09T18:49:45.930Z,11.4
2023-04-09T18:59:47.216Z,11.2
2023-04-09T19:09:48.779Z,11
2023-04-09T19:19:50.827Z,10.8
2023-04-09T19:29:51.974Z,10.6
2023-04-09T19:39:53.286Z,10.3
2023-04-09T19:59:56.313Z,9.5
2023-04-09T20:09:57.988Z,8.9
2023-04-09T20:19:59.334Z,8.6
2023-04-09T20:30:00.523Z,8.8
2023-04-09T20:40:02.179Z,9.1
2023-04-09T20:50:04.125Z,9
2023-04-09T21:00:05.203Z,8.8
2023-04-09T21:10:06.976Z,8.8
2023-04-09T21:20:08.706Z,8.7
2023-04-09T21:30:10.504Z,8.4
2023-04-09T21:40:11.797Z,8.2
2023-04-09T21:50:13.650Z,7.9
2023-04-09T22:00:15.076Z,7.4
2023-04-09T22:10:16.824Z,7.2
2023-04-09T22:30:20.574Z,7.6
2023-04-09T22:40:22.595Z,7.5
2023-04-09T22:50:23.798Z,7.3
2023-04-09T23:00:24.978Z,6.8
2023-04-09T23:10:26.867Z,6.2
2023-04-09T23:20:28.313Z,5.8
2023-04-09T23:30:29.473Z,5.7
2023-04-09T23:40:30.651Z,5.5
2023-04-09T23:50:32.429Z,5.5
